Time;durP1;ratioP1;P1;durP2;ratioP2;P2;SDS_P1;SDS_P2;PMS_P1;PMS_P2;Temp;Humidity;BMP_temperature;BMP_pressure;BME280_temperature;BME280_humidity;BME280_pressure;Samples;Min_cycle;Max_cycle;Signal;HPM_P1;HPM_P2
2023/07/20 00:00:47;;;;;;;2.05;1.02;;;;;;;13.09;92.44;100696.19;5031437;28;20064;-91
2023/07/20 00:03:16;;;;;;;1.88;1.20;;;;;;;12.99;92.94;100702.91;5030588;28;20064;-91
2023/07/20 00:05:43;;;;;;;2.15;1.20;;;;;;;13.00;92.47;100696.81;5031587;28;20058;-91
2023/07/20 00:08:09;;;;;;;5.45;1.17;;;;;;;12.78;93.68;100695.56;5031753;28;20330;-91
2023/07/20 00:10:34;;;;;;;2.38;1.25;;;;;;;12.78;93.98;100698.16;5031626;28;20199;-91
2023/07/20 00:12:59;;;;;;;1.92;1.13;;;;;;;12.73;94.89;100694.16;5031781;28;20060;-91
2023/07/20 00:15:25;;;;;;;1.85;1.23;;;;;;;12.71;95.92;100702.03;5031775;28;20055;-91
2023/07/20 00:17:50;;;;;;;2.00;1.08;;;;;;;12.55;97.62;100706.50;5031688;28;20618;-91
2023/07/20 00:20:15;;;;;;;2.90;1.63;;;;;;;12.60;97.88;100704.47;5031012;28;20107;-91
2023/07/20 00:22:41;;;;;;;1.98;1.42;;;;;;;12.59;97.97;100708.00;5031479;28;20025;-91
2023/07/20 00:25:06;;;;;;;2.33;1.58;;;;;;;12.53;98.57;100695.41;5031636;28;20036;-90
2023/07/20 00:27:32;;;;;;;2.08;1.15;;;;;;;12.48;99.32;100694.84;5031639;28;20483;-91
2023/07/20 00:29:57;;;;;;;3.20;1.30;;;;;;;12.42;99.49;100693.47;5031461;28;20084;-91
2023/07/20 00:32:23;;;;;;;2.40;1.20;;;;;;;12.42;98.83;100701.25;5046920;28;20147;-90
2023/07/20 00:34:48;;;;;;;1.85;1.35;;;;;;;12.41;99.15;100700.44;5031267;28;20111;-92
2023/07/20 00:37:13;;;;;;;3.90;1.30;;;;;;;12.31;99.15;100698.47;5030350;28;20026;-91
2023/07/20 00:39:39;;;;;;;1.77;1.20;;;;;;;12.36;98.17;100699.88;5031566;28;20368;-91
2023/07/20 00:42:04;;;;;;;2.45;1.48;;;;;;;12.32;97.15;100700.97;5031572;28;20018;-91
2023/07/20 00:44:30;;;;;;;1.52;1.08;;;;;;;12.41;95.12;100694.38;5031563;28;20033;-91
2023/07/20 00:46:55;;;;;;;4.43;1.08;;;;;;;12.40;93.58;100692.75;5013592;28;20036;-91
2023/07/20 00:49:21;;;;;;;1.83;1.15;;;;;;;12.29;91.30;100690.81;5031385;28;20419;-91
2023/07/20 00:51:48;;;;;;;2.00;1.02;;;;;;;12.27;92.55;100689.25;5031465;28;20530;-91
2023/07/20 00:54:15;;;;;;;2.92;0.82;;;;;;;12.24;91.68;100685.09;5030267;28;20067;-91
2023/07/20 00:56:40;;;;;;;1.98;0.93;;;;;;;12.18;91.12;100685.44;5031516;28;20026;-90
2023/07/20 00:59:05;;;;;;;2.58;1.20;;;;;;;12.22;92.99;100684.34;5031307;28;20034;-91
2023/07/20 01:01:31;;;;;;;3.95;0.93;;;;;;;12.18;93.61;100682.84;5029197;28;20487;-90
2023/07/20 01:03:56;;;;;;;3.30;0.82;;;;;;;12.17;93.17;100687.22;5027826;28;20081;-91
2023/07/20 01:06:35;;;;;;;1.65;1.05;;;;;;;12.09;92.55;100683.41;5030357;28;20446;-91
2023/07/20 01:09:17;;;;;;;1.77;1.10;;;;;;;12.09;92.82;100683.41;5031286;28;20087;-91
2023/07/20 01:11:58;;;;;;;1.67;1.10;;;;;;;12.11;92.53;100689.31;5029522;28;20030;-91
2023/07/20 01:14:25;;;;;;;1.98;1.25;;;;;;;12.10;92.58;100682.50;5015040;28;20029;-91
2023/07/20 01:16:52;;;;;;;1.50;1.05;;;;;;;12.04;93.70;100682.84;5018747;28;20100;-91
2023/07/20 01:19:17;;;;;;;1.85;1.20;;;;;;;11.98;95.45;100687.47;5034748;28;20395;-91
2023/07/20 01:22:01;;;;;;;1.50;1.25;;;;;;;11.96;95.97;100689.31;5016913;28;20022;-90
2023/07/20 01:25:08;;;;;;;2.58;1.30;;;;;;;12.09;92.34;100673.06;5034665;28;20026;-91
2023/07/20 01:28:14;;;;;;;1.77;0.80;;;;;;;12.00;91.57;100684.81;5033728;28;20018;-90
2023/07/20 01:30:52;;;;;;;2.58;1.10;;;;;;;12.02;91.90;100682.09;5034681;28;20060;-91
2023/07/20 01:33:19;;;;;;;1.70;1.13;;;;;;;11.89;91.55;100677.66;5034450;28;20072;-91
2023/07/20 01:35:48;;;;;;;1.10;0.88;;;;;;;11.95;90.73;100679.91;5016673;28;20019;-91
2023/07/20 01:38:14;;;;;;;6.93;1.15;;;;;;;11.93;91.21;100673.97;5034607;28;20091;-91
2023/07/20 01:40:40;;;;;;;3.55;1.88;;;;;;;11.87;91.64;100674.31;5034663;28;20063;-91
2023/07/20 01:43:06;;;;;;;6.97;2.10;;;;;;;11.72;92.82;100668.28;5034631;28;20025;-91
2023/07/20 01:45:31;;;;;;;3.63;1.60;;;;;;;11.68;92.90;100668.53;5033666;28;20087;-91
2023/07/20 01:47:57;;;;;;;3.88;1.40;;;;;;;11.56;93.23;100676.09;5032502;28;20025;-92
2023/07/20 01:50:22;;;;;;;2.17;1.00;;;;;;;11.47;93.40;100679.22;5016454;28;20053;-91
2023/07/20 01:52:48;;;;;;;2.60;1.55;;;;;;;11.47;95.00;100676.63;5034099;28;20100;-91
2023/07/20 01:55:13;;;;;;;2.22;1.10;;;;;;;11.51;95.51;100678.13;5037972;28;20033;-91
2023/07/20 01:57:38;;;;;;;4.13;1.30;;;;;;;11.36;96.35;100684.16;5038092;28;20116;-91
2023/07/20 02:00:04;;;;;;;1.85;0.90;;;;;;;11.40;96.77;100688.22;5035994;28;20032;-88
2023/07/20 02:02:30;;;;;;;7.78;1.23;;;;;;;11.41;96.44;100682.16;5028465;28;20091;-91
2023/07/20 02:04:55;;;;;;;2.58;0.80;;;;;;;11.41;94.23;100677.00;5040583;28;20026;-91
2023/07/20 02:07:20;;;;;;;3.13;1.30;;;;;;;11.53;93.64;100678.88;5040151;28;20364;-91
2023/07/20 02:09:46;;;;;;;1.98;1.05;;;;;;;11.38;94.75;100676.31;5035268;28;20510;-91
2023/07/20 02:12:11;;;;;;;2.33;1.00;;;;;;;11.49;94.07;100679.97;5033772;28;20048;-91
2023/07/20 02:14:36;;;;;;;1.30;1.00;;;;;;;11.41;94.37;100674.41;5032449;28;20116;-91
2023/07/20 02:17:02;;;;;;;2.45;1.10;;;;;;;11.33;93.02;100668.81;5033328;28;20029;-91
2023/07/20 02:19:29;;;;;;;1.23;0.90;;;;;;;11.36;93.01;100668.66;5031673;28;20021;-91
2023/07/20 02:21:55;;;;;;;0.73;0.63;;;;;;;11.33;93.47;100664.47;5015863;28;20037;-90
2023/07/20 02:24:20;;;;;;;4.10;1.55;;;;;;;11.30;93.82;100666.41;5032779;28;20017;-91
2023/07/20 02:26:45;;;;;;;2.78;1.02;;;;;;;11.27;95.20;100664.03;5033592;28;20037;-91
2023/07/20 02:29:14;;;;;;;3.03;1.30;;;;;;;11.25;96.12;100666.69;5032159;28;20407;-90
2023/07/20 02:31:39;;;;;;;2.42;1.10;;;;;;;11.17;94.65;100668.88;5032811;28;20036;-91
2023/07/20 02:34:08;;;;;;;3.92;1.38;;;;;;;11.18;95.71;100665.34;5027200;28;20026;-90
2023/07/20 02:36:34;;;;;;;2.75;1.10;;;;;;;11.19;95.69;100661.03;5011804;28;20377;-91
2023/07/20 02:39:00;;;;;;;1.67;1.08;;;;;;;11.13;96.38;100659.63;5015207;28;20491;-91
2023/07/20 02:41:25;;;;;;;1.35;0.95;;;;;;;11.11;96.75;100654.53;5015574;28;20045;-91
2023/07/20 02:43:50;;;;;;;2.45;1.05;;;;;;;11.13;96.50;100662.19;5030264;28;20026;-91
2023/07/20 02:46:16;;;;;;;2.22;1.17;;;;;;;11.03;97.19;100663.66;5033067;28;20048;-91
2023/07/20 02:48:41;;;;;;;3.28;1.08;;;;;;;11.10;96.71;100663.22;5037886;28;20033;-91
2023/07/20 02:51:07;;;;;;;3.13;1.17;;;;;;;11.05;97.15;100657.47;5052981;28;20029;-90
2023/07/20 02:53:33;;;;;;;2.75;1.10;;;;;;;11.03;97.65;100661.88;5039648;28;20029;-91
2023/07/20 02:55:58;;;;;;;2.22;1.27;;;;;;;10.97;98.75;100664.78;5033194;28;20025;-92
2023/07/20 02:58:24;;;;;;;1.60;1.33;;;;;;;10.85;100.00;100662.88;5040904;28;20499;-91
2023/07/20 03:00:49;;;;;;;1.38;1.17;;;;;;;10.91;100.00;100660.81;5022397;28;20025;-91
2023/07/20 03:03:15;;;;;;;3.47;2.33;;;;;;;10.94;100.00;100657.22;5014869;28;20037;-91
2023/07/20 03:05:41;;;;;;;1.60;1.20;;;;;;;10.94;100.00;100657.22;5037809;28;20035;-91
2023/07/20 03:08:06;;;;;;;8.07;1.80;;;;;;;11.03;100.00;100651.56;5050343;28;20025;-91
2023/07/20 03:10:32;;;;;;;2.10;1.15;;;;;;;11.00;100.00;100650.88;5043879;28;20027;-91
2023/07/20 03:12:58;;;;;;;1.70;1.30;;;;;;;11.10;100.00;100652.88;5046026;28;20089;-91
2023/07/20 03:15:23;;;;;;;1.88;1.20;;;;;;;10.83;99.96;100652.66;5032764;28;20021;-90
2023/07/20 03:17:49;;;;;;;1.80;1.23;;;;;;;10.97;97.99;100644.13;5032647;28;20413;-91
2023/07/20 03:20:14;;;;;;;2.30;1.20;;;;;;;10.88;99.26;100652.41;5032658;28;20029;-91
2023/07/20 03:22:39;;;;;;;2.50;1.20;;;;;;;10.81;100.00;100651.09;5032671;28;20080;-91
2023/07/20 03:25:05;;;;;;;1.45;1.00;;;;;;;10.76;100.00;100648.75;5032600;28;20109;-91
2023/07/20 03:27:30;;;;;;;1.48;1.00;;;;;;;10.69;100.00;100648.25;5020379;28;20261;-90
2023/07/20 03:29:56;;;;;;;1.65;1.08;;;;;;;10.67;100.00;100651.84;5012313;28;20072;-91
2023/07/20 03:32:21;;;;;;;4.07;1.15;;;;;;;10.69;100.00;100652.59;5012728;28;20056;-91
2023/07/20 03:34:46;;;;;;;1.35;0.80;;;;;;;10.61;100.00;100653.00;5027345;28;20068;-91
2023/07/20 03:37:13;;;;;;;1.15;1.02;;;;;;;10.55;100.00;100649.91;5018647;28;20025;-91
2023/07/20 03:39:38;;;;;;;2.17;1.00;;;;;;;10.53;100.00;100644.81;5032485;28;20025;-92
2023/07/20 03:42:04;;;;;;;2.90;1.35;;;;;;;10.53;100.00;100651.75;5032403;28;20026;-91
2023/07/20 03:44:30;;;;;;;1.63;1.17;;;;;;;10.50;100.00;100645.00;5003006;28;20083;-91
2023/07/20 03:46:55;;;;;;;3.67;1.08;;;;;;;10.61;100.00;100654.75;5012399;28;20034;-91
2023/07/20 03:49:21;;;;;;;1.50;1.10;;;;;;;10.53;100.00;100657.72;5021661;28;20079;-91
2023/07/20 03:51:46;;;;;;;1.55;0.98;;;;;;;10.55;100.00;100650.75;5029612;28;20045;-91
2023/07/20 03:54:11;;;;;;;1.40;1.10;;;;;;;10.44;100.00;100656.50;5026029;28;20391;-90
2023/07/20 03:56:37;;;;;;;1.48;1.10;;;;;;;10.40;100.00;100656.72;5029906;28;20034;-91
2023/07/20 03:59:02;;;;;;;3.70;1.20;;;;;;;10.40;100.00;100667.06;5031231;28;20482;-90
2023/07/20 04:01:27;;;;;;;1.50;1.10;;;;;;;10.35;100.00;100656.97;5046537;28;20037;-90
2023/07/20 04:03:53;;;;;;;2.35;1.20;;;;;;;10.39;100.00;100661.06;5029659;28;20126;-91
2023/07/20 04:06:18;;;;;;;3.70;1.60;;;;;;;10.41;100.00;100658.38;5031421;28;20025;-91
2023/07/20 04:08:44;;;;;;;1.65;1.30;;;;;;;10.44;100.00;100660.81;5047443;28;20105;-91
2023/07/20 04:11:10;;;;;;;1.73;1.05;;;;;;;10.33;100.00;100665.72;5012899;28;20033;-91
2023/07/20 04:13:35;;;;;;;3.03;1.40;;;;;;;10.32;100.00;100659.72;5014245;28;20368;-91
2023/07/20 04:16:02;;;;;;;3.08;1.63;;;;;;;10.39;100.00;100649.91;5031238;28;20060;-91
2023/07/20 04:18:27;;;;;;;3.80;1.25;;;;;;;10.39;100.00;100650.75;5031994;28;20468;-91
2023/07/20 04:20:53;;;;;;;2.25;1.25;;;;;;;10.22;100.00;100659.34;5031522;28;20036;-91
2023/07/20 04:23:18;;;;;;;1.75;1.38;;;;;;;10.24;100.00;100652.34;5030373;28;20116;-91
2023/07/20 04:25:44;;;;;;;1.48;1.23;;;;;;;10.19;100.00;100659.50;5030102;28;20414;-91
2023/07/20 04:28:09;;;;;;;2.25;1.30;;;;;;;10.11;100.00;100651.31;5031094;28;20030;-90
2023/07/20 04:30:39;;;;;;;2.85;1.35;;;;;;;10.19;100.00;100659.50;5031442;28;20062;-90
2023/07/20 04:33:04;;;;;;;1.73;1.33;;;;;;;10.21;100.00;100660.25;5030487;28;20108;-90
2023/07/20 04:35:56;;;;;;;2.63;1.30;;;;;;;10.22;100.00;100659.34;5029145;28;20032;-90
2023/07/20 04:38:22;;;;;;;1.58;1.35;;;;;;;10.40;100.00;100667.06;5028555;28;20092;-90
2023/07/20 04:40:49;;;;;;;1.77;1.38;;;;;;;10.39;100.00;100665.41;5031539;28;20029;-90
2023/07/20 04:43:15;;;;;;;1.98;1.40;;;;;;;10.43;100.00;100662.53;5031681;28;20032;-90
2023/07/20 04:45:40;;;;;;;2.58;1.48;;;;;;;10.37;100.00;100667.22;5031552;28;20033;-90
2023/07/20 04:48:14;;;;;;;2.67;1.50;;;;;;;10.39;100.00;100660.25;5033789;28;21170;-90
2023/07/20 04:50:44;;;;;;;3.22;1.50;;;;;;;10.35;100.00;100664.72;5034735;28;20075;-90
2023/07/20 04:53:10;;;;;;;3.72;1.73;;;;;;;10.34;100.00;100659.63;5015807;28;20033;-91
2023/07/20 04:55:37;;;;;;;2.60;1.50;;;;;;;10.34;100.00;100668.22;5015974;28;20430;-90
2023/07/20 04:58:03;;;;;;;2.60;2.13;;;;;;;10.35;100.00;100662.13;5016856;28;20036;-90
2023/07/20 05:00:29;;;;;;;2.70;1.55;;;;;;;10.46;100.00;100664.13;5033001;28;20463;-90
2023/07/20 05:02:55;;;;;;;1.80;1.30;;;;;;;10.49;100.00;100664.00;5033556;28;20030;-90
2023/07/20 05:05:21;;;;;;;1.60;1.50;;;;;;;10.55;100.00;100663.66;5034931;28;20506;-90
2023/07/20 05:07:47;;;;;;;2.20;1.90;;;;;;;10.55;100.00;100660.25;5035668;28;20038;-89
2023/07/20 05:10:12;;;;;;;3.47;1.40;;;;;;;10.52;100.00;100663.81;5016822;28;20026;-90
2023/07/20 05:12:38;;;;;;;1.10;1.00;;;;;;;10.45;100.00;100659.91;5034798;28;20452;-90
2023/07/20 05:15:04;;;;;;;2.63;1.60;;;;;;;10.46;100.00;100661.56;5035001;28;20029;-90
2023/07/20 05:17:29;;;;;;;4.20;1.48;;;;;;;10.44;100.00;100658.25;5034783;28;20475;-90
2023/07/20 05:19:55;;;;;;;2.85;1.45;;;;;;;10.45;100.00;100665.06;5017240;28;20101;-91
2023/07/20 05:22:20;;;;;;;2.33;1.55;;;;;;;10.48;100.00;100659.72;5034759;28;20036;-91
2023/07/20 05:24:45;;;;;;;4.95;1.80;;;;;;;10.51;100.00;100659.59;5034711;28;20025;-90
2023/07/20 05:27:11;;;;;;;2.03;1.42;;;;;;;10.53;100.00;100655.16;5033663;28;20352;-90
2023/07/20 05:29:36;;;;;;;2.53;1.60;;;;;;;10.58;100.00;100662.66;5034654;28;20021;-90
2023/07/20 05:32:02;;;;;;;3.25;2.08;;;;;;;10.60;100.00;100660.81;5034726;28;20030;-91
2023/07/20 05:34:28;;;;;;;3.38;1.95;;;;;;;10.65;100.00;100659.66;5034491;28;20483;-90
2023/07/20 05:36:53;;;;;;;1.92;1.33;;;;;;;10.69;100.00;100648.25;5016785;28;20065;-90
2023/07/20 05:39:19;;;;;;;2.22;1.50;;;;;;;10.69;100.00;100658.56;5034660;28;20037;-91
2023/07/20 05:41:44;;;;;;;2.28;1.48;;;;;;;10.69;100.00;100658.56;5034415;28;20025;-90
2023/07/20 05:44:10;;;;;;;2.25;1.48;;;;;;;10.71;100.00;100651.59;5033390;28;20044;-90
2023/07/20 05:46:35;;;;;;;2.20;1.73;;;;;;;10.79;100.00;100658.09;5034670;28;20025;-90
2023/07/20 05:49:01;;;;;;;2.58;1.35;;;;;;;10.80;100.00;100651.97;5016532;28;20184;-90
2023/07/20 05:51:27;;;;;;;1.45;1.35;;;;;;;10.87;100.00;100661.06;5034360;28;20022;-90
2023/07/20 05:53:52;;;;;;;1.67;1.25;;;;;;;10.93;100.00;100661.56;5034163;28;20108;-91
2023/07/20 05:56:17;;;;;;;2.33;1.40;;;;;;;11.02;100.00;100654.22;5016563;28;20115;-90
2023/07/20 05:58:43;;;;;;;2.15;1.80;;;;;;;11.05;100.00;100654.88;5015549;28;20028;-90
2023/07/20 06:01:08;;;;;;;2.42;1.73;;;;;;;11.12;100.00;100658.78;5033139;28;20097;-91
2023/07/20 06:03:34;;;;;;;4.07;1.42;;;;;;;11.24;100.00;100659.00;5033779;28;20033;-91
2023/07/20 06:06:06;;;;;;;3.17;1.73;;;;;;;11.30;100.00;100663.84;5031608;28;20471;-91
2023/07/20 06:08:31;;;;;;;;;;;;;;;11.46;100.00;100663.78;5017332;28;20041;-91
2023/07/20 06:10:57;;;;;;;4.30;3.05;;;;;;;11.61;100.00;100656.88;5032510;28;19913;-91
2023/07/20 06:13:23;;;;;;;4.85;2.72;;;;;;;11.65;100.00;100659.22;5032303;28;20022;-91
2023/07/20 06:15:48;;;;;;;4.05;2.90;;;;;;;11.74;100.00;100652.69;5032653;28;20026;-90
2023/07/20 06:18:14;;;;;;;4.43;2.97;;;;;;;11.87;100.00;100656.22;5031801;28;20075;-91
2023/07/20 06:20:40;;;;;;;4.78;3.10;;;;;;;14.13;98.72;100653.00;5032081;28;20044;-92
2023/07/20 06:23:05;;;;;;;3.95;2.20;;;;;;;15.63;84.60;100649.19;5032007;28;20021;-91
2023/07/20 06:25:31;;;;;;;6.57;2.70;;;;;;;16.30;77.92;100651.97;5032117;28;20026;-91
2023/07/20 06:27:56;;;;;;;5.30;2.17;;;;;;;16.35;74.36;100647.22;5014415;28;20018;-91
2023/07/20 06:30:22;;;;;;;3.88;2.00;;;;;;;16.14;73.47;100647.09;5014662;28;20091;-92
2023/07/20 06:32:48;;;;;;;5.13;1.85;;;;;;;18.65;66.04;100650.81;5014213;28;20075;-92
2023/07/20 06:35:14;;;;;;;5.53;2.00;;;;;;;21.17;55.97;100662.28;5031111;28;20375;-92
2023/07/20 06:37:39;;;;;;;1.48;1.05;;;;;;;23.00;50.35;100649.69;5031044;28;20535;-93
2023/07/20 06:40:06;;;;;;;2.55;1.20;;;;;;;23.44;48.33;100659.06;5031590;28;20116;-91
2023/07/20 06:42:31;;;;;;;2.08;1.27;;;;;;;24.60;45.19;100661.16;5030400;28;20434;-91
2023/07/20 06:44:57;;;;;;;4.28;1.63;;;;;;;24.94;44.77;100667.88;5030905;28;20087;-91
2023/07/20 06:47:23;;;;;;;2.40;1.45;;;;;;;26.20;42.14;100656.56;5012104;28;20022;-91
2023/07/20 06:49:49;;;;;;;3.00;1.23;;;;;;;25.79;42.80;100664.16;5029773;28;20029;-93
2023/07/20 06:52:15;;;;;;;3.85;1.42;;;;;;;26.69;40.96;100660.41;5030219;28;20014;-92
2023/07/20 06:54:40;;;;;;;1.83;1.38;;;;;;;26.37;40.83;100657.19;5031355;28;20438;-92
2023/07/20 06:57:05;;;;;;;4.25;1.67;;;;;;;26.73;39.69;100659.03;5031473;28;20025;-92
2023/07/20 06:59:31;;;;;;;4.07;1.58;;;;;;;26.72;39.56;100661.84;5031621;28;20110;-92
2023/07/20 07:01:56;;;;;;;2.92;1.73;;;;;;;26.90;39.41;100660.41;5031449;28;20025;-92
2023/07/20 07:04:22;;;;;;;3.17;1.73;;;;;;;24.39;43.37;100672.31;5013521;28;20528;-92
2023/07/20 07:06:47;;;;;;;1.98;1.30;;;;;;;22.42;47.77;100671.59;5013552;28;20080;-92
2023/07/20 07:09:13;;;;;;;2.42;1.48;;;;;;;22.72;47.22;100658.84;5029919;28;20498;-92
2023/07/20 07:11:39;;;;;;;2.08;1.35;;;;;;;23.60;46.78;100660.84;5030982;28;20025;-92
2023/07/20 07:14:04;;;;;;;4.72;1.30;;;;;;;23.60;45.36;100663.47;5030653;28;20021;-92
2023/07/20 07:16:29;;;;;;;2.13;1.60;;;;;;;23.54;46.50;100658.91;5032379;28;20029;-92
2023/07/20 07:18:55;;;;;;;2.17;1.30;;;;;;;23.52;45.38;100655.59;5013331;28;20068;-92
2023/07/20 07:21:20;;;;;;;5.78;2.38;;;;;;;25.32;42.03;100660.00;5031179;28;20483;-93
2023/07/20 07:23:47;;;;;;;5.22;1.40;;;;;;;26.81;39.96;100658.06;5029842;28;20069;-93
2023/07/20 07:26:12;;;;;;;2.78;1.40;;;;;;;26.17;40.40;100658.78;5045056;28;20025;-93
2023/07/20 07:28:37;;;;;;;2.55;1.00;;;;;;;26.14;40.53;100656.50;5012816;28;20064;-93
2023/07/20 07:31:06;;;;;;;3.03;1.02;;;;;;;26.99;38.90;100662.91;5012320;28;20033;-94
2023/07/20 07:33:32;;;;;;;1.60;1.02;;;;;;;27.11;39.61;100650.78;5029626;28;20021;-94
2023/07/20 07:35:57;;;;;;;2.22;1.02;;;;;;;25.82;41.23;100658.50;5029902;28;20109;-94
2023/07/20 07:38:23;;;;;;;1.63;0.82;;;;;;;26.40;41.20;100656.00;5030260;28;20108;-95
2023/07/20 07:40:48;;;;;;;8.00;1.27;;;;;;;26.16;40.07;100651.84;5012848;28;20032;-94
2023/07/20 07:43:14;;;;;;;1.30;0.90;;;;;;;26.02;40.79;100651.69;5012287;28;20262;-94
2023/07/20 07:45:40;;;;;;;4.30;1.08;;;;;;;26.82;39.08;100649.91;5011702;28;20060;-95
2023/07/20 07:48:06;;;;;;;2.80;1.00;;;;;;;26.51;39.33;100641.44;5012670;28;20018;-95
2023/07/20 07:50:32;;;;;;;2.60;1.20;;;;;;;26.83;39.96;100648.94;5027024;28;20033;-96
2023/07/20 07:52:58;;;;;;;1.63;0.80;;;;;;;25.57;42.36;100648.19;5012406;28;20040;-95
2023/07/20 07:55:24;;;;;;;1.65;0.80;;;;;;;26.90;39.01;100647.16;5045318;28;20487;-95
2023/07/20 07:57:49;;;;;;;1.30;0.80;;;;;;;25.87;40.67;100647.41;5009087;28;20037;-95
2023/07/20 08:00:18;;;;;;;2.38;1.10;;;;;;;25.18;42.45;100648.41;5013836;28;20037;-95
2023/07/20 08:02:44;;;;;;;2.25;0.90;;;;;;;25.96;41.89;100639.19;5012317;28;20570;-96
2023/07/20 08:05:10;;;;;;;1.88;0.80;;;;;;;25.33;43.75;100643.94;5012850;28;20120;-95
2023/07/20 08:07:36;;;;;;;0.75;0.50;;;;;;;25.12;42.96;100636.69;5012641;28;20052;-96
2023/07/20 08:10:01;;;;;;;2.92;0.70;;;;;;;24.85;43.80;100642.50;5015430;28;20112;-96
2023/07/20 08:12:27;;;;;;;1.13;0.70;;;;;;;24.37;44.34;100644.47;5013431;28;20100;-96
2023/07/20 08:14:52;;;;;;;1.95;0.60;;;;;;;24.53;45.49;100633.81;5009130;28;20029;-96
2023/07/20 08:17:18;;;;;;;2.85;0.95;;;;;;;23.95;45.99;100633.28;5028414;28;20384;-96
2023/07/20 08:19:44;;;;;;;1.55;0.70;;;;;;;24.49;44.28;100635.19;5034510;28;20039;-96
2023/07/20 08:22:10;;;;;;;1.50;0.75;;;;;;;24.34;43.69;100635.91;5014526;28;20372;-96
2023/07/20 08:24:39;;;;;;;1.17;0.55;;;;;;;24.92;43.89;100638.16;5024220;28;20023;-96
2023/07/20 08:27:04;;;;;;;2.63;0.82;;;;;;;25.74;41.11;100640.91;5061792;28;20479;-95
2023/07/20 08:29:30;;;;;;;2.17;0.90;;;;;;;24.34;43.85;100646.44;5014807;28;20045;-96
2023/07/20 08:31:55;;;;;;;2.85;1.05;;;;;;;25.24;42.61;100631.84;5016429;28;20018;-95
2023/07/20 08:34:20;;;;;;;2.03;0.70;;;;;;;25.44;42.16;100633.97;5014958;28;20030;-96
2023/07/20 08:36:46;;;;;;;1.48;0.65;;;;;;;25.47;42.55;100631.78;5032119;28;20028;-96
2023/07/20 08:39:11;;;;;;;1.88;0.77;;;;;;;25.90;42.28;100639.94;5014574;28;20052;-95
2023/07/20 08:41:37;;;;;;;6.53;0.70;;;;;;;25.88;42.73;100628.72;5018365;28;20028;-96
2023/07/20 08:44:02;;;;;;;2.70;0.82;;;;;;;26.61;40.57;100628.75;5047737;28;20116;-96
2023/07/20 08:46:28;;;;;;;3.80;0.98;;;;;;;26.59;40.11;100625.47;5014562;28;20022;-96
2023/07/20 08:48:56;;;;;;;0.90;0.60;;;;;;;26.45;40.45;100625.28;5014827;28;20394;-96
2023/07/20 08:51:22;;;;;;;1.10;0.60;;;;;;;26.75;39.51;100634.97;5014289;28;20554;-96
2023/07/20 08:53:50;;;;;;;1.63;0.50;;;;;;;24.97;41.94;100625.25;5015196;28;20116;-96
2023/07/20 08:56:16;;;;;;;1.20;0.65;;;;;;;24.77;41.92;100619.63;5014499;28;20422;-96
2023/07/20 08:58:43;;;;;;;1.70;0.50;;;;;;;24.22;42.97;100624.09;5014648;28;20029;-96
2023/07/20 09:01:11;;;;;;;1.52;0.70;;;;;;;23.24;45.42;100622.53;5014638;28;20115;-96
2023/07/20 09:03:39;;;;;;;2.03;0.57;;;;;;;23.54;44.72;100617.56;5017982;28;20364;-95
2023/07/20 09:06:05;;;;;;;2.40;0.60;;;;;;;23.31;47.01;100619.22;5022812;28;20021;-95
2023/07/20 09:08:30;;;;;;;1.42;0.50;;;;;;;23.08;47.53;100626.00;5014522;28;20026;-95
2023/07/20 09:10:56;;;;;;;3.05;1.52;;;;;;;23.56;44.27;100622.66;5014688;28;20092;-95
2023/07/20 09:13:21;;;;;;;0.75;0.57;;;;;;;24.00;40.51;100616.94;5034099;28;20099;-96
2023/07/20 09:15:48;;;;;;;3.55;0.75;;;;;;;25.13;40.73;100617.19;5021727;28;20022;-96
2023/07/20 09:18:57;;;;;;;1.98;0.60;;;;;;;25.30;39.02;100614.44;5025881;28;20033;-96
2023/07/20 09:21:30;;;;;;;1.30;0.60;;;;;;;25.38;39.10;100620.44;5044647;28;20072;-96
2023/07/20 09:24:00;;;;;;;2.42;0.50;;;;;;;25.94;39.06;100613.91;5035859;28;20021;-96
2023/07/20 09:26:28;;;;;;;3.70;1.05;;;;;;;26.50;35.82;100618.63;5036678;28;20014;-96
2023/07/20 09:29:09;;;;;;;2.55;0.60;;;;;;;26.26;36.47;100607.38;5054137;28;20022;-96
2023/07/20 09:31:34;;;;;;;8.85;0.50;;;;;;;26.62;37.95;100610.03;5018644;28;20042;-96
2023/07/20 09:34:00;;;;;;;1.23;0.52;;;;;;;26.78;37.83;100618.75;5018422;28;20021;-96
2023/07/20 09:36:29;;;;;;;1.52;0.40;;;;;;;26.98;37.54;100613.59;5021483;28;20117;-96
2023/07/20 09:38:54;;;;;;;2.25;0.60;;;;;;;26.72;35.93;100609.72;5022336;28;20091;-96
2023/07/20 09:41:21;;;;;;;2.13;0.73;;;;;;;27.01;36.08;100619.31;5022531;28;20422;-96
2023/07/20 09:43:46;;;;;;;2.00;0.80;;;;;;;27.17;36.83;100612.94;5022068;28;20026;-96
2023/07/20 09:46:13;;;;;;;2.28;0.85;;;;;;;27.53;35.85;100607.50;5020727;28;20420;-96
2023/07/20 09:48:39;;;;;;;1.58;0.73;;;;;;;27.45;34.42;100609.47;5022860;28;20040;-96
2023/07/20 09:51:06;;;;;;;1.55;0.88;;;;;;;28.00;35.71;100609.59;5019738;28;20018;-96
2023/07/20 09:53:33;;;;;;;2.25;0.80;;;;;;;28.11;34.42;100609.81;5019733;28;20168;-96
2023/07/20 09:55:59;;;;;;;1.58;0.80;;;;;;;27.65;37.25;100612.22;5051558;28;20079;-96
2023/07/20 09:58:26;;;;;;;1.83;0.88;;;;;;;27.75;35.14;100613.53;5019699;28;20085;-96
2023/07/20 10:00:54;;;;;;;4.55;1.00;;;;;;;27.60;34.97;100606.69;5054333;28;20021;-96
2023/07/20 10:03:21;;;;;;;1.33;0.90;;;;;;;28.04;35.52;100606.31;5018904;28;20033;-96
2023/07/20 10:05:56;;;;;;;5.57;1.10;;;;;;;28.17;35.14;100609.03;5052116;28;20022;-96
2023/07/20 10:08:24;;;;;;;4.88;1.08;;;;;;;28.18;34.61;100609.84;5018532;28;20029;-96
2023/07/20 10:10:50;;;;;;;1.10;0.65;;;;;;;28.35;33.70;100608.44;5018622;28;20056;-96
2023/07/20 10:13:27;;;;;;;3.00;0.88;;;;;;;28.04;33.82;100608.97;5018846;28;20468;-96
2023/07/20 10:16:06;;;;;;;2.63;0.90;;;;;;;27.71;34.62;100609.63;5018549;28;20057;-96
2023/07/20 10:18:40;;;;;;;2.97;0.88;;;;;;;28.37;35.16;100610.91;5019049;28;20166;-96
2023/07/20 10:21:07;;;;;;;1.25;0.80;;;;;;;29.01;35.73;100599.75;5018414;28;20037;-96
2023/07/20 10:23:34;;;;;;;2.35;0.90;;;;;;;29.19;32.62;100600.97;5052162;28;20395;-96
2023/07/20 10:26:04;;;;;;;1.83;0.88;;;;;;;29.16;33.44;100601.41;5030762;28;20048;-96
2023/07/20 10:28:32;;;;;;;1.48;0.65;;;;;;;29.21;32.13;100594.47;5029998;28;20510;-96
2023/07/20 10:31:01;;;;;;;1.85;1.00;;;;;;;29.33;31.75;100599.94;5029820;28;20030;-96
2023/07/20 10:33:27;;;;;;;6.97;1.13;;;;;;;29.35;31.98;100595.22;5063640;28;20049;-96
2023/07/20 10:36:05;;;;;;;3.17;0.90;;;;;;;29.71;31.01;100591.28;5029782;28;20033;-96
2023/07/20 10:39:02;;;;;;;1.85;0.70;;;;;;;29.07;32.11;100582.22;5015831;28;20040;-96
2023/07/20 10:41:35;;;;;;;1.27;0.80;;;;;;;29.17;33.69;100589.75;5029698;28;20064;-96
2023/07/20 10:44:04;;;;;;;3.88;0.75;;;;;;;29.43;32.99;100580.88;5032155;28;20021;-96
2023/07/20 10:46:39;;;;;;;2.50;1.08;;;;;;;29.13;31.97;100591.19;5031466;28;20025;-96
2023/07/20 10:49:06;;;;;;;2.33;1.08;;;;;;;29.10;32.88;100583.63;5026473;28;20032;-96
2023/07/20 10:51:49;;;;;;;2.78;0.77;;;;;;;29.90;31.54;100580.75;5025723;28;20033;-96
2023/07/20 10:54:17;;;;;;;2.88;1.17;;;;;;;29.55;34.30;100583.72;5025750;28;20040;-96
2023/07/20 10:56:50;;;;;;;6.40;0.90;;;;;;;30.25;31.90;100579.38;5054938;28;20021;-96
2023/07/20 10:59:20;;;;;;;2.28;1.00;;;;;;;29.62;31.32;100579.19;5022127;28;20021;-96
2023/07/20 11:01:47;;;;;;;3.20;0.70;;;;;;;29.10;31.03;100578.31;5019462;28;20052;-96
2023/07/20 11:04:12;;;;;;;3.00;1.02;;;;;;;28.09;33.04;100580.03;5021612;28;20028;-96
2023/07/20 11:06:43;;;;;;;3.97;1.00;;;;;;;27.59;33.22;100567.97;5022376;28;20026;-96
2023/07/20 11:09:15;;;;;;;4.50;0.93;;;;;;;28.69;32.74;100566.84;5054644;28;20033;-96
2023/07/20 11:11:48;;;;;;;3.33;1.20;;;;;;;28.78;34.23;100567.47;5024319;28;20034;-96
2023/07/20 11:14:24;;;;;;;1.38;0.77;;;;;;;28.94;33.54;100561.72;5024629;28;20032;-96
2023/07/20 11:16:52;;;;;;;1.65;0.63;;;;;;;27.78;34.26;100556.63;5016870;28;20368;-96
2023/07/20 11:19:27;;;;;;;2.15;0.80;;;;;;;27.23;36.21;100563.66;5020047;28;20025;-96
2023/07/20 11:21:56;;;;;;;5.82;1.05;;;;;;;27.86;34.43;100551.16;5026766;28;20037;-96
2023/07/20 11:24:22;;;;;;;1.85;1.00;;;;;;;28.31;34.91;100555.97;5019885;28;20479;-94